Time;durP1;ratioP1;P1;durP2;ratioP2;P2;SDS_P1;SDS_P2;PMS_P1;PMS_P2;Temp;Humidity;BMP_temperature;BMP_pressure;BME280_temperature;BME280_humidity;BME280_pressure;Samples;Min_cycle;Max_cycle;Signal;HPM_P1;HPM_P2
2023/03/31 00:01:56;;;;;;;0.40;0.40;;;18.30;63.70;;;18.44;48.01;94436.91;4882420;29;20198;-24
2023/03/31 00:04:24;;;;;;;0.47;0.47;;;18.30;63.70;;;18.43;47.76;94429.19;4865976;29;20190;-24
2023/03/31 00:06:52;;;;;;;0.40;0.40;;;18.30;63.80;;;18.42;47.49;94423.09;4866030;29;20201;-24
2023/03/31 00:09:21;;;;;;;0.40;0.40;;;18.30;63.80;;;18.42;47.44;94420.44;4882284;29;20198;-24
2023/03/31 00:11:49;;;;;;;0.50;0.50;;;18.30;63.80;;;18.43;47.60;94429.19;4882200;29;20280;-24
2023/03/31 00:14:19;;;;;;;0.47;0.47;;;18.30;63.80;;;18.44;48.05;94430.81;4882324;29;20539;-24
2023/03/31 00:16:47;;;;;;;0.45;0.45;;;18.30;63.80;;;18.42;47.58;94422.28;4866069;29;20257;-24
2023/03/31 00:19:17;;;;;;;0.43;0.43;;;18.30;63.80;;;18.42;48.01;94423.09;4882001;29;20637;-24
2023/03/31 00:21:47;;;;;;;0.40;0.40;;;18.30;63.80;;;18.41;47.99;94424.16;4866160;29;20192;-24
2023/03/31 00:24:15;;;;;;;0.40;0.40;;;18.30;63.70;;;18.41;47.53;94429.47;4850662;29;20201;-24
2023/03/31 00:26:43;;;;;;;0.50;0.50;;;18.30;63.80;;;18.41;47.97;94418.84;4850302;29;20202;-24
2023/03/31 00:29:12;;;;;;;0.40;0.40;;;18.30;63.80;;;18.42;47.53;94424.94;4881948;29;20200;-24
2023/03/31 00:31:40;;;;;;;0.40;0.40;;;18.30;63.80;;;18.39;47.64;94412.97;4865727;29;20198;-24
2023/03/31 00:34:07;;;;;;;0.40;0.40;;;18.30;63.80;;;18.40;48.06;94411.91;4850765;29;20605;-22
2023/03/31 00:36:44;;;;;;;0.40;0.40;;;18.30;63.80;;;18.39;47.86;94412.97;4865770;29;20197;-24
2023/03/31 00:39:14;;;;;;;0.47;0.47;;;18.30;63.80;;;18.38;48.12;94409.53;4866885;29;20560;-21
2023/03/31 00:41:42;;;;;;;0.50;0.50;;;18.30;63.80;;;18.39;48.00;94410.31;4881703;29;20595;-21
2023/03/31 00:44:26;;;;;;;0.40;0.40;;;18.20;63.80;;;18.37;48.09;94404.44;4865312;29;20660;-25
2023/03/31 00:47:12;;;;;;;0.40;0.40;;;18.20;63.70;;;18.37;48.06;94401.78;4866046;29;20272;-24
2023/03/31 00:49:46;;;;;;;0.50;0.50;;;18.20;63.70;;;18.33;47.65;94392.75;4865550;29;20636;-22
2023/03/31 00:52:29;;;;;;;0.45;0.45;;;18.20;63.80;;;18.33;48.04;94390.88;4849846;29;20245;-22
2023/03/31 00:55:06;;;;;;;0.60;0.60;;;18.20;63.80;;;18.33;48.05;94392.75;4849886;29;20201;-23
2023/03/31 00:57:38;;;;;;;0.43;0.43;;;18.20;64.70;;;18.34;47.79;94386.38;4864994;29;20664;-21
2023/03/31 01:00:17;;;;;;;0.50;0.50;;;18.20;63.80;;;18.33;47.84;94382.13;4865349;29;20658;-21
2023/03/31 01:02:54;;;;;;;0.40;0.40;;;18.20;63.80;;;18.32;47.69;94381.34;4866449;29;20186;-21
2023/03/31 01:05:35;;;;;;;0.50;0.50;;;18.20;63.80;;;18.31;47.48;94377.06;4865370;29;20228;-22
2023/03/31 01:08:05;;;;;;;0.43;0.43;;;18.20;63.80;;;18.30;48.08;94372.81;4865427;29;20241;-22
2023/03/31 01:10:40;;;;;;;0.40;0.40;;;18.20;63.80;;;18.31;47.82;94365.63;4850213;29;20227;-21
2023/03/31 01:13:09;;;;;;;0.50;0.50;;;18.20;63.80;;;18.29;47.51;94360.59;4836070;29;20193;-21
2023/03/31 01:15:38;;;;;;;0.50;0.50;;;18.20;63.80;;;18.32;47.94;94357.44;4850649;29;20296;-23
2023/03/31 01:18:08;;;;;;;0.50;0.50;;;18.10;63.70;;;18.29;47.72;94347.31;4849981;29;20233;-23
2023/03/31 01:21:13;;;;;;;0.57;0.57;;;18.20;63.80;;;18.30;47.68;94353.44;4850406;29;20193;-21
2023/03/31 01:24:50;;;;;;;0.40;0.40;;;18.10;63.70;;;18.26;47.60;94347.03;4864813;29;20209;-21
2023/03/31 01:27:42;;;;;;;0.45;0.45;;;18.10;63.70;;;18.23;48.13;94343.81;4806016;29;20284;-21
2023/03/31 01:30:51;;;;;;;0.50;0.50;;;18.10;63.80;;;18.20;47.76;94339.03;4863261;29;20221;-21
2023/03/31 01:34:02;;;;;;;0.50;0.50;;;18.10;63.80;;;18.20;47.68;94344.34;4864847;29;20211;-21
2023/03/31 01:37:38;;;;;;;0.50;0.50;;;18.10;63.80;;;18.17;47.89;94344.81;4865223;29;20186;-21
2023/03/31 01:40:59;;;;;;;0.60;0.60;;;18.10;63.70;;;18.14;48.06;94339.22;4881371;29;20242;-21
2023/03/31 01:43:36;;;;;;;0.50;0.50;;;18.10;63.80;;;18.15;48.17;94330.22;4824678;29;20323;-21
2023/03/31 01:46:27;;;;;;;0.50;0.50;;;18.00;63.80;;;18.13;47.51;94327.81;4865213;29;20594;-21
2023/03/31 01:49:19;;;;;;;0.52;0.52;;;18.00;63.80;;;18.14;48.24;94329.44;4849432;29;20201;-21
2023/03/31 01:52:10;;;;;;;0.50;0.50;;;18.00;63.80;;;18.14;48.23;94325.97;4864595;29;20241;-21
2023/03/31 01:55:24;;;;;;;0.50;0.50;;;18.00;63.80;;;18.10;48.23;94306.28;4864737;29;20205;-21
2023/03/31 01:58:13;;;;;;;0.57;0.57;;;18.00;63.80;;;18.11;48.12;94306.03;4849369;29;20244;-21
2023/03/31 02:01:08;;;;;;;0.50;0.50;;;18.00;63.90;;;18.12;48.24;94310.28;4849219;29;20209;-21
2023/03/31 02:03:44;;;;;;;0.50;0.50;;;18.00;63.90;;;18.12;48.25;94298.88;4881400;29;20201;-21
2023/03/31 02:06:18;;;;;;;0.50;0.50;;;18.00;63.90;;;18.12;48.01;94298.88;4865059;29;20185;-21
2023/03/31 02:09:00;;;;;;;0.50;0.50;;;17.90;63.80;;;18.11;48.09;94295.41;4849183;29;20222;-21
2023/03/31 02:11:30;;;;;;;0.40;0.40;;;18.00;63.90;;;18.12;47.68;94305.00;4864992;29;20253;-21
2023/03/31 02:14:00;;;;;;;0.45;0.45;;;17.90;63.80;;;18.13;47.62;94287.22;4864291;29;20668;-21
2023/03/31 02:16:32;;;;;;;0.50;0.50;;;18.00;64.00;;;18.12;48.15;94281.09;4849386;29;20262;-21
2023/03/31 02:19:04;;;;;;;0.45;0.45;;;18.00;63.90;;;18.13;47.74;94284.56;4864927;29;20265;-21
2023/03/31 02:21:35;;;;;;;0.50;0.50;;;18.00;64.00;;;18.12;47.72;94278.44;4879855;29;20216;-21
2023/03/31 02:24:11;;;;;;;0.50;0.50;;;18.00;64.00;;;18.13;47.88;94276.59;4864732;29;20182;-24
2023/03/31 02:27:04;;;;;;;0.50;0.50;;;18.00;63.90;;;18.13;48.17;94281.91;4835190;29;20201;-22
2023/03/31 02:29:32;;;;;;;0.50;0.50;;;18.00;64.00;;;18.11;48.09;94282.16;4867898;29;20243;-22
2023/03/31 02:32:21;;;;;;;0.60;0.60;;;17.90;63.90;;;18.12;47.79;94275.00;4868032;29;20224;-24
2023/03/31 02:34:53;;;;;;;0.50;0.50;;;18.00;63.90;;;18.12;47.92;94275.00;4854760;29;20580;-23
2023/03/31 02:37:21;;;;;;;0.50;0.50;;;18.00;63.90;;;18.11;47.56;94268.09;4867997;29;20201;-22
2023/03/31 02:39:52;;;;;;;0.50;0.50;;;17.90;63.80;;;18.10;47.72;94264.63;4868027;29;20232;-24
2023/03/31 02:42:21;;;;;;;0.50;0.50;;;17.90;63.90;;;18.11;48.15;94262.78;4852460;29;20186;-22
2023/03/31 02:44:51;;;;;;;0.50;0.50;;;18.00;64.00;;;18.10;48.07;94254.00;4868059;29;20174;-22
2023/03/31 02:47:21;;;;;;;0.50;0.50;;;17.90;63.90;;;18.09;47.88;94252.44;4852257;29;20201;-22
2023/03/31 02:49:54;;;;;;;0.50;0.50;;;17.90;63.90;;;18.09;47.75;94244.47;4867599;29;20258;-22
2023/03/31 02:52:55;;;;;;;0.50;0.50;;;17.90;63.90;;;18.10;47.95;94240.75;4867520;29;20237;-22
2023/03/31 02:55:36;;;;;;;0.50;0.50;;;17.90;63.90;;;18.08;48.20;94248.97;4867747;29;20205;-22
2023/03/31 02:58:38;;;;;;;0.50;0.50;;;17.90;63.90;;;18.05;48.24;94241.53;4882660;29;20587;-22
2023/03/31 03:01:40;;;;;;;0.40;0.40;;;17.90;63.90;;;18.06;48.14;94237.78;4853045;29;20192;-22
2023/03/31 03:04:40;;;;;;;0.50;0.50;;;17.90;63.90;;;18.04;47.59;94231.97;4846261;29;20539;-22
2023/03/31 03:07:21;;;;;;;0.50;0.50;;;17.90;63.90;;;18.04;47.73;94231.97;4882582;29;20661;-22
2023/03/31 03:10:01;;;;;;;0.50;0.50;;;17.90;63.90;;;18.04;47.82;94229.31;4851877;29;20201;-22
2023/03/31 03:12:44;;;;;;;0.50;0.50;;;17.90;63.90;;;18.03;48.08;94226.91;4851747;29;20197;-22
2023/03/31 03:15:40;;;;;;;0.50;0.50;;;17.80;63.90;;;18.00;47.79;94216.81;4867267;29;20196;-22
2023/03/31 03:18:08;;;;;;;0.40;0.40;;;17.80;63.90;;;17.99;47.87;94216.00;4851732;29;20277;-22
2023/03/31 03:20:35;;;;;;;0.50;0.50;;;17.90;64.00;;;18.01;47.98;94229.81;4867295;29;20217;-22
2023/03/31 03:23:02;;;;;;;0.50;0.50;;;17.80;63.90;;;18.01;48.23;94227.16;4883755;29;20190;-22
2023/03/31 03:25:29;;;;;;;0.45;0.45;;;17.80;64.00;;;18.01;48.03;94224.50;4867203;29;20237;-22
2023/03/31 03:27:56;;;;;;;0.50;0.50;;;17.80;63.90;;;18.00;47.76;94219.44;4867007;29;20202;-22
2023/03/31 03:30:24;;;;;;;0.50;0.50;;;17.80;64.00;;;18.02;48.08;94225.31;4883333;29;20205;-22
2023/03/31 03:32:51;;;;;;;0.45;0.45;;;17.80;64.90;;;18.00;47.84;94214.94;4867015;29;20190;-22
2023/03/31 03:35:18;;;;;;;0.40;0.40;;;17.80;64.00;;;18.01;47.83;94215.75;4851831;29;20532;-22
2023/03/31 03:37:45;;;;;;;0.55;0.55;;;17.80;64.00;;;18.01;47.70;94221.06;4866623;29;20704;-22
2023/03/31 03:40:14;;;;;;;0.40;0.40;;;17.80;64.00;;;18.01;47.92;94215.75;4882681;29;20230;-22
2023/03/31 03:42:41;;;;;;;0.50;0.50;;;17.80;64.00;;;18.00;48.12;94204.31;4851657;29;20217;-22
2023/03/31 03:45:09;;;;;;;0.40;0.40;;;17.80;64.00;;;18.02;47.97;94204.88;4883201;29;20197;-22
2023/03/31 03:47:36;;;;;;;0.50;0.50;;;17.80;64.00;;;18.01;48.29;94202.47;4866640;29;20625;-22
2023/03/31 03:50:05;;;;;;;0.40;0.40;;;17.80;64.00;;;18.01;47.65;94205.94;4851122;29;20246;-22
2023/03/31 03:52:32;;;;;;;0.50;0.50;;;17.80;64.00;;;17.99;48.28;94200.09;4883306;29;20229;-22
2023/03/31 03:55:00;;;;;;;0.50;0.50;;;17.80;64.00;;;18.01;47.95;94191.88;4866402;29;20534;-22
2023/03/31 03:57:27;;;;;;;0.50;0.50;;;17.80;64.00;;;18.00;47.91;94187.63;4882851;29;20214;-22
2023/03/31 03:59:54;;;;;;;0.50;0.50;;;17.80;64.00;;;18.00;47.85;94182.31;4882496;29;20227;-22
2023/03/31 04:02:22;;;;;;;0.50;0.50;;;17.80;64.00;;;17.99;47.94;94181.53;4851389;29;20201;-22
2023/03/31 04:04:51;;;;;;;0.50;0.50;;;17.80;64.00;;;17.98;48.27;94171.97;4882392;29;20189;-22
2023/03/31 04:07:19;;;;;;;0.50;0.50;;;17.80;64.00;;;17.98;47.84;94179.91;4882685;29;20206;-22
2023/03/31 04:09:46;;;;;;;0.50;0.50;;;17.80;64.00;;;17.99;47.85;94172.75;4882844;29;20648;-22
2023/03/31 04:12:13;;;;;;;0.50;0.50;;;17.80;64.00;;;17.98;47.95;94165.84;4866410;29;20244;-22
2023/03/31 04:14:40;;;;;;;0.50;0.50;;;17.80;64.00;;;17.96;47.76;94166.09;4882215;29;20206;-22
2023/03/31 04:17:09;;;;;;;0.50;0.50;;;17.80;64.00;;;17.96;47.67;94166.09;4882270;29;20201;-22
2023/03/31 04:19:37;;;;;;;0.43;0.43;;;17.80;64.00;;;17.97;48.31;94170.34;4882214;29;20214;-22
2023/03/31 04:22:04;;;;;;;0.50;0.50;;;17.80;64.00;;;17.96;48.11;94167.97;4866546;29;20258;-22
2023/03/31 04:24:31;;;;;;;0.50;0.50;;;17.80;64.00;;;17.95;48.30;94159.19;4850534;29;20207;-22
2023/03/31 04:27:01;;;;;;;0.47;0.47;;;17.70;63.90;;;17.94;48.10;94160.22;4866582;29;20501;-22
2023/03/31 04:29:32;;;;;;;0.50;0.50;;;17.70;64.00;;;17.95;47.91;94169.00;4851238;29;20201;-22
2023/03/31 04:32:00;;;;;;;0.50;0.50;;;17.80;64.00;;;17.95;48.32;94172.47;4882110;29;20193;-22
2023/03/31 04:34:33;;;;;;;0.50;0.50;;;17.80;64.10;;;17.93;48.24;94162.06;4882760;29;20201;-22
2023/03/31 04:37:02;;;;;;;0.50;0.50;;;17.70;64.00;;;17.93;47.98;94159.44;4882198;29;20197;-22
2023/03/31 04:39:29;;;;;;;0.50;0.50;;;17.70;64.00;;;17.93;48.19;94170.03;4865509;29;20316;-22
2023/03/31 04:41:59;;;;;;;0.40;0.40;;;17.70;64.00;;;17.93;47.78;94161.25;4881799;29;20201;-22
2023/03/31 04:44:26;;;;;;;0.50;0.50;;;17.80;64.10;;;17.92;48.28;94170.31;4865419;29;20289;-22
2023/03/31 04:46:54;;;;;;;0.50;0.50;;;17.70;64.00;;;17.93;47.88;94164.72;4881645;29;20198;-22
2023/03/31 04:49:21;;;;;;;0.50;0.50;;;17.70;64.00;;;17.92;48.43;94162.34;4881836;29;20212;-22
2023/03/31 04:51:49;;;;;;;0.50;0.50;;;17.70;64.00;;;17.92;48.32;94168.44;4881053;29;20580;-22
2023/03/31 04:54:16;;;;;;;0.50;0.50;;;17.70;64.10;;;17.92;47.88;94157.03;4881647;29;20209;-22
2023/03/31 04:56:43;;;;;;;0.60;0.60;;;17.70;64.10;;;17.93;48.09;94158.59;4881709;29;20525;-22
2023/03/31 04:59:10;;;;;;;0.50;0.50;;;17.70;64.10;;;17.91;47.93;94148.25;4880547;29;20229;-22
2023/03/31 05:01:38;;;;;;;0.60;0.60;;;17.70;64.00;;;17.91;48.05;94145.59;4865108;29;20677;-22
2023/03/31 05:04:05;;;;;;;0.50;0.50;;;17.70;64.20;;;17.91;48.30;94136.88;4881746;29;20375;-22
2023/03/31 05:06:33;;;;;;;0.50;0.50;;;17.70;64.10;;;17.91;48.16;94142.97;4865217;29;20189;-22
2023/03/31 05:09:00;;;;;;;0.50;0.50;;;17.70;64.10;;;17.91;47.97;94142.97;4881431;29;20193;-22
2023/03/31 05:11:27;;;;;;;0.60;0.60;;;17.70;64.10;;;17.93;48.46;94129.44;4865345;29;20193;-22
2023/03/31 05:13:55;;;;;;;0.50;0.50;;;17.70;64.20;;;17.92;48.13;94131.28;4865225;29;20204;-22
2023/03/31 05:16:23;;;;;;;0.50;0.50;;;17.70;64.20;;;17.91;48.28;94126.25;4849550;29;20215;-22
2023/03/31 05:18:50;;;;;;;0.60;0.60;;;17.70;64.10;;;17.93;48.31;94124.94;4881107;29;20292;-22
2023/03/31 05:21:20;;;;;;;0.50;0.50;;;17.70;64.20;;;17.93;47.86;94122.28;4881302;29;20198;-22
2023/03/31 05:23:48;;;;;;;0.50;0.50;;;17.70;64.20;;;17.92;48.53;94109.28;4865195;29;20194;-22
2023/03/31 05:26:15;;;;;;;0.50;0.50;;;17.70;64.30;;;17.93;48.51;94114.31;4864722;29;20254;-22
2023/03/31 05:28:43;;;;;;;0.50;0.50;;;17.70;64.20;;;17.95;48.43;94108.78;4865127;29;20216;-22
2023/03/31 05:31:11;;;;;;;0.50;0.50;;;17.70;64.20;;;17.94;48.51;94115.09;4879838;29;20209;-22
2023/03/31 05:33:40;;;;;;;0.50;0.50;;;17.70;64.20;;;17.94;48.01;94099.19;4862326;29;20211;-22
2023/03/31 05:36:11;;;;;;;0.50;0.50;;;17.70;64.30;;;17.96;47.90;94096.34;4861226;29;20296;-22
2023/03/31 05:38:39;;;;;;;0.50;0.50;;;17.70;64.20;;;17.97;47.97;94097.91;4864221;29;20669;-22
2023/03/31 05:41:08;;;;;;;0.52;0.52;;;17.70;64.20;;;17.98;48.43;94087.06;4881047;29;20200;-22
2023/03/31 05:43:38;;;;;;;0.50;0.50;;;17.70;64.20;;;17.97;48.06;94085.44;4859305;29;20197;-22
2023/03/31 05:46:05;;;;;;;0.60;0.60;;;17.80;64.40;;;17.99;48.21;94079.88;4880901;29;20206;-22
2023/03/31 05:48:33;;;;;;;0.50;0.50;;;17.70;64.20;;;17.99;48.06;94078.03;4881011;29;20204;-22
2023/03/31 05:51:00;;;;;;;0.50;0.50;;;17.70;64.20;;;17.98;48.31;94070.31;4880839;29;20233;-22
2023/03/31 05:53:28;;;;;;;0.50;0.50;;;17.80;64.30;;;17.98;47.94;94076.44;4881022;29;20261;-22
2023/03/31 05:56:05;;;;;;;0.50;0.50;;;17.80;64.30;;;17.99;48.50;94086.00;4879992;29;20194;-22
2023/03/31 05:58:35;;;;;;;0.50;0.50;;;17.80;64.30;;;17.98;47.99;94087.06;4864974;29;20573;-22
2023/03/31 06:01:11;;;;;;;0.50;0.50;;;17.80;64.30;;;17.98;48.38;94083.59;4880271;29;20204;-22
2023/03/31 06:03:40;;;;;;;0.50;0.50;;;17.80;64.30;;;17.98;47.98;94079.09;4868714;29;20569;-22
2023/03/31 06:06:11;;;;;;;0.50;0.50;;;17.80;64.20;;;17.97;48.52;94080.16;4884483;29;20270;-22
2023/03/31 06:08:39;;;;;;;0.50;0.50;;;17.80;64.30;;;17.99;48.12;94066.63;4853168;29;20236;-22
2023/03/31 06:11:09;;;;;;;0.50;0.50;;;17.80;64.30;;;17.99;48.62;94056.00;4884559;29;20197;-22
2023/03/31 06:13:39;;;;;;;0.50;0.50;;;17.80;64.30;;;17.99;48.50;94053.34;4884815;29;20639;-22
2023/03/31 06:16:07;;;;;;;0.50;0.50;;;17.80;64.20;;;17.98;48.28;94046.44;4883436;29;20249;-22
2023/03/31 06:18:35;;;;;;;0.50;0.50;;;17.80;64.30;;;18.01;48.05;94054.69;4868695;29;20630;-22
2023/03/31 06:21:03;;;;;;;0.50;0.50;;;17.80;64.20;;;18.02;48.25;94055.50;4868150;29;20201;-22
2023/03/31 06:23:31;;;;;;;0.47;0.47;;;17.80;64.20;;;18.00;48.30;94050.44;4884241;29;20262;-22
2023/03/31 06:26:02;;;;;;;0.50;0.50;;;17.80;64.20;;;18.01;48.08;94046.72;4883215;29;20201;-22
2023/03/31 06:28:38;;;;;;;0.50;0.50;;;17.80;64.20;;;18.04;47.99;94040.91;4884526;29;20246;-22
2023/03/31 06:31:18;;;;;;;0.50;0.50;;;17.80;64.40;;;18.03;48.00;94034.00;4884036;29;20211;-22
2023/03/31 06:33:59;;;;;;;0.50;0.50;;;17.80;64.30;;;18.03;48.21;94033.22;4840534;29;20280;-22
2023/03/31 06:36:32;;;;;;;0.60;0.60;;;17.80;64.20;;;18.06;48.33;94035.34;4883713;29;20205;-22
2023/03/31 06:39:21;;;;;;;0.60;0.60;;;17.80;64.20;;;18.06;47.99;94024.72;4883915;29;20609;-22
2023/03/31 06:42:25;;;;;;;0.60;0.60;;;17.80;64.20;;;18.04;48.55;94021.53;4867401;29;20193;-22
2023/03/31 06:45:43;;;;;;;0.50;0.50;;;17.90;64.30;;;18.05;48.65;94020.47;4870659;29;20580;-22
2023/03/31 06:48:16;;;;;;;0.50;0.50;;;17.90;64.30;;;18.05;48.30;94017.81;4882778;29;20197;-22
2023/03/31 06:50:54;;;;;;;0.50;0.50;;;17.90;64.30;;;18.05;48.12;94013.31;4883824;29;20425;-23
2023/03/31 06:53:22;;;;;;;0.50;0.50;;;17.90;64.30;;;18.10;48.05;94011.72;4849111;29;20241;-23
2023/03/31 06:55:49;;;;;;;0.60;0.60;;;17.90;64.30;;;18.10;48.36;94009.06;4833705;29;20206;-23
2023/03/31 06:58:16;;;;;;;0.50;0.50;;;17.90;64.30;;;18.11;48.08;94013.31;4855246;29;20270;-23
2023/03/31 07:00:45;;;;;;;0.50;0.50;;;17.90;64.30;;;18.12;48.39;94006.97;4880869;29;20319;-23
2023/03/31 07:03:13;;;;;;;0.50;0.50;;;17.90;64.30;;;18.13;48.23;94009.34;4848993;29;20206;-23
2023/03/31 07:05:40;;;;;;;0.50;0.50;;;17.90;64.30;;;18.15;48.09;94014.38;4850779;29;20205;-24
2023/03/31 07:08:10;;;;;;;0.50;0.50;;;17.90;64.30;;;18.16;47.93;94018.66;4883733;29;20276;-24
2023/03/31 07:10:38;;;;;;;0.45;0.45;;;18.00;64.40;;;18.16;48.10;94010.69;4852258;29;20201;-25
2023/03/31 07:13:06;;;;;;;0.50;0.50;;;18.00;64.30;;;18.16;48.33;94000.88;4883003;29;20216;-24
2023/03/31 07:15:33;;;;;;;0.47;0.47;;;18.00;64.30;;;18.18;48.28;94000.63;4865119;29;20614;-22
2023/03/31 07:18:01;;;;;;;0.50;0.50;;;18.00;64.30;;;18.19;48.46;93997.69;4872384;29;20201;-22
2023/03/31 07:20:30;;;;;;;0.60;0.60;;;18.00;64.30;;;18.21;48.56;93992.09;4867444;29;20381;-22
2023/03/31 07:22:57;;;;;;;0.40;0.40;;;18.00;64.30;;;18.20;48.21;93988.66;4883635;29;20185;-21
2023/03/31 07:25:24;;;;;;;0.50;0.50;;;18.00;65.20;;;18.20;48.27;93978.06;4883241;29;20660;-22
2023/03/31 07:27:52;;;;;;;0.50;0.50;;;18.00;64.30;;;18.21;48.07;93977.00;4883605;29;20213;-21
2023/03/31 07:30:20;;;;;;;0.40;0.40;;;18.10;64.30;;;18.23;48.25;93977.50;4883156;29;20625;-24
2023/03/31 07:32:49;;;;;;;0.50;0.50;;;18.00;64.20;;;18.26;48.28;93975.41;4867013;29;20216;-21
2023/03/31 07:35:18;;;;;;;0.40;0.40;;;18.10;64.30;;;18.24;48.37;93965.06;4882904;29;20597;-21
2023/03/31 07:37:47;;;;;;;0.52;0.52;;;18.10;64.30;;;18.24;48.21;93965.84;4866760;29;20218;-21
2023/03/31 07:40:24;;;;;;;0.50;0.50;;;18.10;64.30;;;18.26;48.26;93970.09;4882937;29;20309;-24
2023/03/31 07:42:52;;;;;;;0.50;0.50;;;18.10;64.20;;;18.24;48.32;93960.53;4867498;29;20187;-24
2023/03/31 07:45:22;;;;;;;0.50;0.50;;;18.10;64.20;;;18.26;48.10;93957.63;4866463;29;20268;-22
2023/03/31 07:47:50;;;;;;;0.50;0.50;;;18.10;64.20;;;18.26;48.60;93959.47;4881822;29;20217;-24
2023/03/31 07:50:19;;;;;;;0.52;0.52;;;18.10;64.20;;;18.26;48.13;93947.03;4866637;29;20564;-22
2023/03/31 07:52:50;;;;;;;0.50;0.50;;;18.10;64.20;;;18.25;47.89;93948.06;4881783;29;20216;-25
2023/03/31 07:55:18;;;;;;;0.50;0.50;;;18.10;64.20;;;18.26;48.49;93960.28;4866522;29;20205;-22
2023/03/31 07:57:46;;;;;;;0.50;0.50;;;18.10;64.20;;;18.26;48.14;93959.47;4882568;29;20202;-22
2023/03/31 08:00:15;;;;;;;0.50;0.50;;;18.10;64.20;;;18.26;47.86;93962.13;4866274;29;20222;-28
2023/03/31 08:02:43;;;;;;;0.52;0.52;;;18.10;64.10;;;18.26;48.01;93947.03;4866468;29;20201;-24
2023/03/31 08:05:13;;;;;;;0.40;0.40;;;18.10;64.10;;;18.27;48.23;93953.13;4881563;29;20643;-21
2023/03/31 08:07:44;;;;;;;0.50;0.50;;;18.10;64.10;;;18.28;48.36;93952.06;4865930;29;20194;-21
2023/03/31 08:10:20;;;;;;;0.50;0.50;;;18.10;64.10;;;18.27;48.45;93940.63;4866443;29;20625;-22
2023/03/31 08:12:48;;;;;;;0.55;0.55;;;18.10;64.10;;;18.26;48.47;93938.25;4866503;29;20204;-24
2023/03/31 08:15:15;;;;;;;0.40;0.40;;;18.10;64.10;;;18.27;48.06;93942.50;4866293;29;20202;-24
2023/03/31 08:17:43;;;;;;;0.40;0.40;;;18.10;64.10;;;18.26;48.42;93938.25;4866414;29;20213;-24
2023/03/31 08:20:13;;;;;;;0.40;0.40;;;18.10;65.00;;;18.25;47.92;93932.16;4866290;29;20222;-22
2023/03/31 08:22:40;;;;;;;0.50;0.50;;;18.10;64.10;;;18.26;47.98;93925.78;4882307;29;20681;-24
2023/03/31 08:25:09;;;;;;;0.60;0.60;;;18.10;64.10;;;18.27;48.42;93918.59;4866339;29;20221;-22
2023/03/31 08:27:39;;;;;;;0.40;0.40;;;18.10;64.00;;;18.26;48.22;93917.81;4865891;29;20288;-24
2023/03/31 08:30:09;;;;;;;0.47;0.47;;;18.10;64.00;;;18.26;48.25;93907.22;4881714;29;20210;-23
2023/03/31 08:32:38;;;;;;;0.40;0.40;;;18.10;64.00;;;18.25;48.09;93908.25;4874227;29;20209;-23
2023/03/31 08:35:07;;;;;;;0.40;0.40;;;18.10;64.10;;;18.26;48.33;93907.22;4847194;29;20650;-23
2023/03/31 08:37:36;;;;;;;0.40;0.40;;;18.10;64.00;;;18.26;48.14;93906.41;4863549;29;20202;-23
2023/03/31 08:40:10;;;;;;;0.50;0.50;;;18.10;64.00;;;18.25;48.10;93897.66;4850669;29;20218;-23
2023/03/31 08:43:13;;;;;;;0.50;0.50;;;18.10;64.00;;;18.22;48.14;93884.88;4865262;29;20209;-24
2023/03/31 08:45:46;;;;;;;0.50;0.50;;;18.10;64.00;;;18.22;47.92;93888.34;4864648;29;20212;-24
2023/03/31 08:48:43;;;;;;;0.50;0.50;;;18.10;64.00;;;18.22;48.14;93893.66;4881011;29;20241;-24
2023/03/31 08:51:31;;;;;;;0.60;0.60;;;18.10;64.00;;;18.20;48.06;93885.16;4848717;29;20237;-24
2023/03/31 09:03:52;;;;;;;0.50;0.50;;;18.10;64.00;;;18.08;48.25;93855.44;4906475;23;20248;-24
2023/03/31 09:06:41;;;;;;;0.50;0.50;;;18.10;64.00;;;18.11;48.60;93862.06;4896490;29;20716;-24
2023/03/31 09:09:25;;;;;;;0.50;0.50;;;18.10;64.10;;;18.12;48.13;93872.41;4880395;29;20220;-24
2023/03/31 09:12:06;;;;;;;0.55;0.55;;;18.10;64.10;;;18.15;48.47;93871.91;4876440;29;20216;-24
2023/03/31 09:14:40;;;;;;;0.60;0.60;;;18.00;64.00;;;18.18;48.66;93857.31;4865306;29;20224;-24
2023/03/31 09:17:17;;;;;;;0.52;0.52;;;18.10;64.10;;;18.19;48.52;93859.69;4865439;29;20189;-25
2023/03/31 09:19:55;;;;;;;0.40;0.40;;;18.10;64.10;;;18.19;48.52;93846.41;4865232;29;20216;-24
2023/03/31 09:22:30;;;;;;;0.50;0.50;;;18.10;64.10;;;18.20;48.58;93850.66;4864799;29;20215;-24
2023/03/31 09:25:09;;;;;;;0.45;0.45;;;18.10;64.10;;;18.21;48.23;93825.72;4871482;29;20588;-24
2023/03/31 09:27:41;;;;;;;0.47;0.47;;;18.10;64.10;;;18.25;47.97;93836.59;4881787;29;20215;-24
2023/03/31 09:30:23;;;;;;;0.43;0.43;;;18.10;64.00;;;18.23;48.42;93828.09;4882040;29;20646;-23
2023/03/31 09:33:19;;;;;;;0.50;0.50;;;18.20;64.20;;;18.26;48.01;93827.56;4896885;29;20628;-23
2023/03/31 09:35:46;;;;;;;0.40;0.40;;;18.20;64.10;;;18.23;48.32;93818.25;4891268;29;20667;-24
2023/03/31 09:38:16;;;;;;;0.40;0.40;;;18.10;64.10;;;18.26;48.07;93822.28;4882616;29;20197;-24
2023/03/31 09:40:44;;;;;;;0.45;0.45;;;18.20;64.20;;;18.27;48.09;93805.25;4881056;29;20217;-24
2023/03/31 09:43:27;;;;;;;0.55;0.55;;;18.20;64.20;;;18.29;48.47;93807.66;4892262;29;20230;-22
2023/03/31 09:45:56;;;;;;;0.40;0.40;;;18.20;64.10;;;18.30;48.45;93790.69;4883679;29;20573;-22
2023/03/31 09:48:36;;;;;;;0.50;0.50;;;18.20;64.20;;;18.31;48.05;93789.59;4862052;29;20209;-22
2023/03/31 09:51:07;;;;;;;0.43;0.43;;;18.20;64.10;;;18.31;47.84;93784.28;4865417;29;20285;-24
2023/03/31 09:53:39;;;;;;;0.50;0.50;;;18.20;64.10;;;18.33;48.05;93787.47;4865115;29;20205;-22
2023/03/31 09:56:10;;;;;;;0.50;0.50;;;18.20;64.10;;;18.33;48.11;93795.44;4849567;29;20273;-22
2023/03/31 09:58:48;;;;;;;0.50;0.50;;;18.30;64.10;;;18.32;48.30;93805.28;4880629;29;20208;-22
2023/03/31 10:01:17;;;;;;;0.43;0.43;;;18.30;64.10;;;18.31;47.93;93814.28;4865217;29;20208;-25
2023/03/31 10:03:55;;;;;;;0.57;0.57;;;18.20;64.00;;;18.31;48.32;93843.50;4865267;29;20654;-24
2023/03/31 10:06:24;;;;;;;0.52;0.52;;;18.30;64.10;;;18.33;48.52;93854.63;4865423;29;20564;-24
2023/03/31 10:08:56;;;;;;;0.40;0.40;;;18.20;64.00;;;18.33;48.16;93861.81;4864747;29;20198;-21
2023/03/31 10:11:26;;;;;;;0.60;0.60;;;18.20;64.00;;;18.33;48.39;93867.13;4849790;29;20182;-22
2023/03/31 10:14:04;;;;;;;0.50;0.50;;;18.30;64.00;;;18.32;47.97;93854.91;4836216;29;20202;-24
2023/03/31 10:16:52;;;;;;;0.40;0.40;;;18.30;64.00;;;18.34;48.11;93853.56;4864635;29;20255;-24
2023/03/31 10:19:26;;;;;;;0.50;0.50;;;18.30;64.00;;;18.33;48.10;93840.56;4865105;29;20201;-21
2023/03/31 10:22:16;;;;;;;0.50;0.50;;;18.30;63.90;;;18.31;48.41;93824.09;4878945;29;20213;-24
2023/03/31 10:24:45;;;;;;;0.50;0.50;;;18.20;63.90;;;18.33;48.24;93821.97;4878814;29;20264;-22
2023/03/31 10:27:36;;;;;;;0.40;0.40;;;18.30;64.00;;;18.32;47.97;93809.78;4875879;29;20619;-24
2023/03/31 10:30:09;;;;;;;0.50;0.50;;;18.20;63.90;;;18.33;48.62;93803.41;4849849;29;20206;-24
2023/03/31 10:32:41;;;;;;;0.50;0.50;;;18.30;64.00;;;18.33;48.05;93792.78;4885783;29;20287;-25
2023/03/31 10:35:29;;;;;;;0.50;0.50;;;18.30;64.00;;;18.34;47.93;93778.44;4875574;29;20544;-25
2023/03/31 10:38:01;;;;;;;0.60;0.60;;;18.30;63.90;;;18.35;48.15;93775.53;4865556;29;20202;-24
2023/03/31 10:40:35;;;;;;;0.50;0.50;;;18.30;64.00;;;18.36;48.39;93761.19;4880342;29;20300;-23
2023/03/31 10:43:10;;;;;;;0.50;0.50;;;18.30;63.90;;;18.38;48.38;93742.31;4886095;29;20205;-24
2023/03/31 10:45:47;;;;;;;0.60;0.60;;;18.30;64.00;;;18.40;48.42;93732.25;4864001;29;20182;-23
2023/03/31 10:48:25;;;;;;;0.40;0.40;;;18.30;64.00;;;18.42;48.16;93724.81;4856531;29;20200;-23
2023/03/31 10:50:57;;;;;;;0.50;0.50;;;18.30;64.90;;;18.41;48.03;93715.25;4901491;29;20197;-24
2023/03/31 10:53:25;;;;;;;0.50;0.50;;;18.40;64.10;;;18.41;48.14;93715.25;4901833;29;20649;-24
2023/03/31 10:56:14;;;;;;;0.50;0.50;;;18.40;64.00;;;18.39;48.29;93699.59;4884429;29;20198;-23
2023/03/31 10:59:03;;;;;;;0.50;0.50;;;18.40;64.00;;;18.41;47.87;93694.03;4883823;29;20257;-22
2023/03/31 11:02:01;;;;;;;0.50;0.50;;;18.40;64.00;;;18.39;47.94;93672.25;4865916;29;20237;-22